sensor_id;sensor_type;location;lat;lon;timestamp;P1;durP1;ratioP1;P2;durP2;ratioP2
36415;SDS011;22447;44.530;18.620;2023-03-14T00:01:10;196.25;;;83.25;;
36415;SDS011;22447;44.530;18.620;2023-03-14T00:03:45;182.55;;;78.40;;
36415;SDS011;22447;44.530;18.620;2023-03-14T00:06:12;185.52;;;76.70;;
36415;SDS011;22447;44.530;18.620;2023-03-14T00:08:39;176.55;;;73.72;;
36415;SDS011;22447;44.530;18.620;2023-03-14T00:11:16;175.30;;;77.05;;
36415;SDS011;22447;44.530;18.620;2023-03-14T00:13:46;163.65;;;74.20;;
36415;SDS011;22447;44.530;18.620;2023-03-14T00:16:15;166.98;;;73.70;;
36415;SDS011;22447;44.530;18.620;2023-03-14T00:18:42;160.60;;;73.75;;
36415;SDS011;22447;44.530;18.620;2023-03-14T00:21:08;154.38;;;69.82;;
36415;SDS011;22447;44.530;18.620;2023-03-14T00:23:36;155.43;;;67.97;;
36415;SDS011;22447;44.530;18.620;2023-03-14T00:26:05;153.02;;;67.60;;
36415;SDS011;22447;44.530;18.620;2023-03-14T00:28:36;145.55;;;66.72;;
36415;SDS011;22447;44.530;18.620;2023-03-14T00:31:03;149.00;;;63.08;;
36415;SDS011;22447;44.530;18.620;2023-03-14T00:33:30;144.07;;;66.90;;
36415;SDS011;22447;44.530;18.620;2023-03-14T00:35:57;184.30;;;77.43;;
36415;SDS011;22447;44.530;18.620;2023-03-14T00:38:28;149.73;;;65.80;;
36415;SDS011;22447;44.530;18.620;2023-03-14T00:40:56;131.48;;;59.60;;
36415;SDS011;22447;44.530;18.620;2023-03-14T00:43:23;142.98;;;63.08;;
36415;SDS011;22447;44.530;18.620;2023-03-14T00:45:49;128.80;;;56.40;;
36415;SDS011;22447;44.530;18.620;2023-03-14T00:48:17;129.15;;;57.67;;
36415;SDS011;22447;44.530;18.620;2023-03-14T00:50:44;121.25;;;54.60;;
36415;SDS011;22447;44.530;18.620;2023-03-14T00:53:13;136.60;;;60.63;;
36415;SDS011;22447;44.530;18.620;2023-03-14T00:55:39;143.50;;;62.65;;
36415;SDS011;22447;44.530;18.620;2023-03-14T00:58:07;159.25;;;67.25;;
36415;SDS011;22447;44.530;18.620;2023-03-14T01:00:35;157.10;;;68.18;;
36415;SDS011;22447;44.530;18.620;2023-03-14T01:03:01;157.77;;;68.90;;
36415;SDS011;22447;44.530;18.620;2023-03-14T01:05:27;152.40;;;69.13;;
36415;SDS011;22447;44.530;18.620;2023-03-14T01:07:53;150.70;;;70.28;;
36415;SDS011;22447;44.530;18.620;2023-03-14T01:10:19;160.50;;;72.28;;
36415;SDS011;22447;44.530;18.620;2023-03-14T01:12:45;160.73;;;72.45;;
36415;SDS011;22447;44.530;18.620;2023-03-14T01:15:11;160.70;;;69.38;;
36415;SDS011;22447;44.530;18.620;2023-03-14T01:17:37;160.13;;;70.13;;
36415;SDS011;22447;44.530;18.620;2023-03-14T01:20:05;156.75;;;69.03;;
36415;SDS011;22447;44.530;18.620;2023-03-14T01:22:34;145.30;;;65.93;;
36415;SDS011;22447;44.530;18.620;2023-03-14T01:25:01;144.55;;;68.82;;
36415;SDS011;22447;44.530;18.620;2023-03-14T01:27:27;156.65;;;71.70;;
36415;SDS011;22447;44.530;18.620;2023-03-14T01:29:53;151.02;;;67.18;;
36415;SDS011;22447;44.530;18.620;2023-03-14T01:32:19;145.55;;;66.68;;
36415;SDS011;22447;44.530;18.620;2023-03-14T01:34:45;148.68;;;64.38;;
36415;SDS011;22447;44.530;18.620;2023-03-14T01:37:11;145.57;;;62.30;;
36415;SDS011;22447;44.530;18.620;2023-03-14T01:39:38;149.45;;;66.95;;
36415;SDS011;22447;44.530;18.620;2023-03-14T01:42:04;143.88;;;63.08;;
36415;SDS011;22447;44.530;18.620;2023-03-14T01:47:22;131.73;;;58.60;;
36415;SDS011;22447;44.530;18.620;2023-03-14T01:49:53;130.05;;;58.13;;
36415;SDS011;22447;44.530;18.620;2023-03-14T01:52:34;119.80;;;55.40;;
36415;SDS011;22447;44.530;18.620;2023-03-14T01:55:05;114.53;;;53.85;;
36415;SDS011;22447;44.530;18.620;2023-03-14T02:02:40;105.43;;;47.58;;
36415;SDS011;22447;44.530;18.620;2023-03-14T02:05:10;104.10;;;46.90;;
36415;SDS011;22447;44.530;18.620;2023-03-14T02:10:24;99.75;;;47.13;;
36415;SDS011;22447;44.530;18.620;2023-03-14T02:13:04;106.53;;;48.13;;
36415;SDS011;22447;44.530;18.620;2023-03-14T02:15:57;107.82;;;48.63;;
36415;SDS011;22447;44.530;18.620;2023-03-14T02:18:59;110.40;;;50.28;;
36415;SDS011;22447;44.530;18.620;2023-03-14T02:21:53;107.45;;;48.85;;
36415;SDS011;22447;44.530;18.620;2023-03-14T02:24:32;113.22;;;48.47;;
36415;SDS011;22447;44.530;18.620;2023-03-14T02:27:09;111.47;;;51.50;;
36415;SDS011;22447;44.530;18.620;2023-03-14T02:29:52;101.05;;;47.72;;
36415;SDS011;22447;44.530;18.620;2023-03-14T02:32:32;103.43;;;47.60;;
36415;SDS011;22447;44.530;18.620;2023-03-14T02:35:00;98.45;;;43.63;;
36415;SDS011;22447;44.530;18.620;2023-03-14T02:37:41;93.80;;;44.25;;
36415;SDS011;22447;44.530;18.620;2023-03-14T02:40:14;90.72;;;40.15;;
36415;SDS011;22447;44.530;18.620;2023-03-14T02:42:42;87.93;;;40.90;;
36415;SDS011;22447;44.530;18.620;2023-03-14T02:47:37;97.70;;;44.28;;
36415;SDS011;22447;44.530;18.620;2023-03-14T02:50:09;85.28;;;41.97;;
36415;SDS011;22447;44.530;18.620;2023-03-14T02:52:38;82.38;;;41.97;;
36415;SDS011;22447;44.530;18.620;2023-03-14T02:55:06;87.25;;;40.40;;
36415;SDS011;22447;44.530;18.620;2023-03-14T02:57:33;86.70;;;40.22;;
36415;SDS011;22447;44.530;18.620;2023-03-14T03:00:00;93.20;;;41.05;;
36415;SDS011;22447;44.530;18.620;2023-03-14T03:04:57;91.90;;;41.97;;
36415;SDS011;22447;44.530;18.620;2023-03-14T03:07:23;106.07;;;47.95;;
36415;SDS011;22447;44.530;18.620;2023-03-14T03:09:51;110.13;;;48.40;;
36415;SDS011;22447;44.530;18.620;2023-03-14T03:12:17;113.95;;;47.60;;
36415;SDS011;22447;44.530;18.620;2023-03-14T03:14:43;137.25;;;53.75;;
36415;SDS011;22447;44.530;18.620;2023-03-14T03:17:09;153.45;;;56.00;;
36415;SDS011;22447;44.530;18.620;2023-03-14T03:19:37;137.73;;;54.92;;
36415;SDS011;22447;44.530;18.620;2023-03-14T03:22:03;150.68;;;58.75;;
36415;SDS011;22447;44.530;18.620;2023-03-14T03:24:29;181.57;;;68.93;;
36415;SDS011;22447;44.530;18.620;2023-03-14T03:26:55;205.30;;;80.72;;
36415;SDS011;22447;44.530;18.620;2023-03-14T03:29:21;208.13;;;81.07;;
36415;SDS011;22447;44.530;18.620;2023-03-14T03:31:47;190.77;;;74.60;;
36415;SDS011;22447;44.530;18.620;2023-03-14T03:34:13;179.90;;;72.78;;
36415;SDS011;22447;44.530;18.620;2023-03-14T03:36:40;160.30;;;64.25;;
36415;SDS011;22447;44.530;18.620;2023-03-14T03:39:06;98.95;;;45.33;;
36415;SDS011;22447;44.530;18.620;2023-03-14T03:41:32;89.43;;;40.78;;
36415;SDS011;22447;44.530;18.620;2023-03-14T03:43:58;87.20;;;40.97;;
36415;SDS011;22447;44.530;18.620;2023-03-14T03:46:24;86.80;;;40.47;;
36415;SDS011;22447;44.530;18.620;2023-03-14T03:48:55;80.43;;;39.47;;
36415;SDS011;22447;44.530;18.620;2023-03-14T03:51:22;82.00;;;41.50;;
36415;SDS011;22447;44.530;18.620;2023-03-14T03:53:48;73.20;;;37.55;;
36415;SDS011;22447;44.530;18.620;2023-03-14T03:56:18;74.82;;;36.92;;
36415;SDS011;22447;44.530;18.620;2023-03-14T03:58:44;63.13;;;31.08;;
36415;SDS011;22447;44.530;18.620;2023-03-14T04:01:10;67.30;;;29.75;;
36415;SDS011;22447;44.530;18.620;2023-03-14T04:03:36;61.00;;;30.40;;
36415;SDS011;22447;44.530;18.620;2023-03-14T04:06:09;55.92;;;27.52;;
36415;SDS011;22447;44.530;18.620;2023-03-14T04:08:38;59.58;;;28.40;;
36415;SDS011;22447;44.530;18.620;2023-03-14T04:11:07;57.22;;;29.42;;
36415;SDS011;22447;44.530;18.620;2023-03-14T04:13:52;58.80;;;30.88;;
36415;SDS011;22447;44.530;18.620;2023-03-14T04:16:25;64.75;;;34.53;;
36415;SDS011;22447;44.530;18.620;2023-03-14T04:18:57;66.90;;;34.75;;
36415;SDS011;22447;44.530;18.620;2023-03-14T04:21:24;71.28;;;36.20;;
36415;SDS011;22447;44.530;18.620;2023-03-14T04:23:54;80.53;;;39.08;;
36415;SDS011;22447;44.530;18.620;2023-03-14T04:26:21;88.43;;;41.92;;
36415;SDS011;22447;44.530;18.620;2023-03-14T04:28:47;102.88;;;44.05;;
36415;SDS011;22447;44.530;18.620;2023-03-14T04:31:17;93.13;;;42.47;;
36415;SDS011;22447;44.530;18.620;2023-03-14T04:33:45;100.93;;;42.83;;
36415;SDS011;22447;44.530;18.620;2023-03-14T04:36:14;90.50;;;41.70;;
36415;SDS011;22447;44.530;18.620;2023-03-14T04:38:41;92.40;;;40.50;;
36415;SDS011;22447;44.530;18.620;2023-03-14T04:41:08;100.78;;;43.55;;
36415;SDS011;22447;44.530;18.620;2023-03-14T04:43:35;115.75;;;48.45;;
36415;SDS011;22447;44.530;18.620;2023-03-14T04:46:05;110.43;;;43.57;;
36415;SDS011;22447;44.530;18.620;2023-03-14T04:48:32;105.82;;;42.92;;
36415;SDS011;22447;44.530;18.620;2023-03-14T04:50:59;90.13;;;37.92;;
36415;SDS011;22447;44.530;18.620;2023-03-14T04:53:29;63.50;;;30.13;;
36415;SDS011;22447;44.530;18.620;2023-03-14T04:55:56;58.03;;;28.38;;
36415;SDS011;22447;44.530;18.620;2023-03-14T04:58:26;56.50;;;27.83;;
36415;SDS011;22447;44.530;18.620;2023-03-14T05:00:54;59.80;;;28.27;;
36415;SDS011;22447;44.530;18.620;2023-03-14T05:03:38;58.15;;;28.92;;
36415;SDS011;22447;44.530;18.620;2023-03-14T05:06:07;69.95;;;35.83;;
36415;SDS011;22447;44.530;18.620;2023-03-14T05:08:47;58.90;;;33.05;;
36415;SDS011;22447;44.530;18.620;2023-03-14T05:11:36;61.80;;;31.45;;
36415;SDS011;22447;44.530;18.620;2023-03-14T05:14:11;66.45;;;32.30;;
36415;SDS011;22447;44.530;18.620;2023-03-14T05:16:39;58.95;;;31.25;;
36415;SDS011;22447;44.530;18.620;2023-03-14T05:19:24;77.10;;;42.22;;
36415;SDS011;22447;44.530;18.620;2023-03-14T05:22:19;129.73;;;55.33;;
36415;SDS011;22447;44.530;18.620;2023-03-14T05:24:57;162.70;;;67.38;;
36415;SDS011;22447;44.530;18.620;2023-03-14T05:27:42;154.25;;;64.70;;
36415;SDS011;22447;44.530;18.620;2023-03-14T05:30:38;154.25;;;64.45;;
36415;SDS011;22447;44.530;18.620;2023-03-14T05:33:29;107.60;;;49.85;;
36415;SDS011;22447;44.530;18.620;2023-03-14T05:36:11;103.28;;;49.15;;
36415;SDS011;22447;44.530;18.620;2023-03-14T05:38:56;124.03;;;59.45;;
36415;SDS011;22447;44.530;18.620;2023-03-14T05:41:42;113.63;;;55.65;;
36415;SDS011;22447;44.530;18.620;2023-03-14T05:44:37;124.30;;;52.10;;
36415;SDS011;22447;44.530;18.620;2023-03-14T05:47:33;111.60;;;48.55;;
36415;SDS011;22447;44.530;18.620;2023-03-14T05:49:59;96.43;;;47.33;;
36415;SDS011;22447;44.530;18.620;2023-03-14T05:52:44;133.45;;;63.28;;
36415;SDS011;22447;44.530;18.620;2023-03-14T05:55:33;99.82;;;49.25;;
36415;SDS011;22447;44.530;18.620;2023-03-14T05:58:17;93.88;;;45.45;;
36415;SDS011;22447;44.530;18.620;2023-03-14T06:01:03;137.45;;;57.13;;
36415;SDS011;22447;44.530;18.620;2023-03-14T06:03:57;192.77;;;76.55;;
36415;SDS011;22447;44.530;18.620;2023-03-14T06:06:23;236.50;;;90.90;;
36415;SDS011;22447;44.530;18.620;2023-03-14T06:08:49;217.25;;;84.97;;
36415;SDS011;22447;44.530;18.620;2023-03-14T06:11:15;180.77;;;72.40;;
36415;SDS011;22447;44.530;18.620;2023-03-14T06:13:41;141.55;;;57.45;;
36415;SDS011;22447;44.530;18.620;2023-03-14T06:16:07;156.88;;;64.10;;
36415;SDS011;22447;44.530;18.620;2023-03-14T06:18:34;170.68;;;69.90;;
36415;SDS011;22447;44.530;18.620;2023-03-14T06:21:01;205.43;;;82.53;;
36415;SDS011;22447;44.530;18.620;2023-03-14T06:23:27;199.82;;;76.18;;
36415;SDS011;22447;44.530;18.620;2023-03-14T06:25:57;132.27;;;58.63;;
36415;SDS011;22447;44.530;18.620;2023-03-14T06:28:24;143.88;;;61.92;;
36415;SDS011;22447;44.530;18.620;2023-03-14T06:30:50;165.82;;;68.13;;
36415;SDS011;22447;44.530;18.620;2023-03-14T06:33:16;143.52;;;59.85;;
36415;SDS011;22447;44.530;18.620;2023-03-14T06:35:42;237.45;;;81.97;;
36415;SDS011;22447;44.530;18.620;2023-03-14T06:38:08;174.48;;;69.05;;
36415;SDS011;22447;44.530;18.620;2023-03-14T06:40:34;423.38;;;139.77;;
36415;SDS011;22447;44.530;18.620;2023-03-14T06:43:07;315.77;;;106.35;;
36415;SDS011;22447;44.530;18.620;2023-03-14T06:45:35;164.45;;;64.30;;
36415;SDS011;22447;44.530;18.620;2023-03-14T06:48:02;134.25;;;58.28;;
36415;SDS011;22447;44.530;18.620;2023-03-14T06:50:51;236.90;;;84.47;;
36415;SDS011;22447;44.530;18.620;2023-03-14T06:53:17;304.13;;;102.43;;
36415;SDS011;22447;44.530;18.620;2023-03-14T06:55:43;322.90;;;110.50;;
36415;SDS011;22447;44.530;18.620;2023-03-14T06:58:12;237.48;;;91.90;;
36415;SDS011;22447;44.530;18.620;2023-03-14T07:00:41;177.80;;;76.85;;
36415;SDS011;22447;44.530;18.620;2023-03-14T07:03:10;166.32;;;73.75;;
36415;SDS011;22447;44.530;18.620;2023-03-14T07:05:41;193.25;;;77.57;;
36415;SDS011;22447;44.530;18.620;2023-03-14T07:08:08;253.05;;;91.47;;
36415;SDS011;22447;44.530;18.620;2023-03-14T07:10:34;174.13;;;68.93;;
36415;SDS011;22447;44.530;18.620;2023-03-14T07:13:00;174.63;;;68.00;;
36415;SDS011;22447;44.530;18.620;2023-03-14T07:15:30;167.00;;;68.35;;
36415;SDS011;22447;44.530;18.620;2023-03-14T07:18:01;162.57;;;67.30;;
36415;SDS011;22447;44.530;18.620;2023-03-14T07:20:27;176.00;;;70.65;;
36415;SDS011;22447;44.530;18.620;2023-03-14T07:22:55;177.32;;;70.70;;
36415;SDS011;22447;44.530;18.620;2023-03-14T07:25:33;177.43;;;77.55;;
36415;SDS011;22447;44.530;18.620;2023-03-14T07:27:59;186.57;;;83.20;;
36415;SDS011;22447;44.530;18.620;2023-03-14T07:30:25;186.25;;;80.88;;
36415;SDS011;22447;44.530;18.620;2023-03-14T07:32:52;161.65;;;74.10;;
36415;SDS011;22447;44.530;18.620;2023-03-14T07:35:21;158.68;;;70.93;;
36415;SDS011;22447;44.530;18.620;2023-03-14T07:37:49;149.38;;;65.80;;
36415;SDS011;22447;44.530;18.620;2023-03-14T07:40:20;140.70;;;62.00;;
36415;SDS011;22447;44.530;18.620;2023-03-14T07:42:46;143.18;;;59.55;;
36415;SDS011;22447;44.530;18.620;2023-03-14T07:45:24;137.57;;;57.42;;
36415;SDS011;22447;44.530;18.620;2023-03-14T07:47:50;127.20;;;53.70;;
36415;SDS011;22447;44.530;18.620;2023-03-14T07:50:16;141.95;;;61.97;;
36415;SDS011;22447;44.530;18.620;2023-03-14T07:52:42;144.45;;;58.80;;
36415;SDS011;22447;44.530;18.620;2023-03-14T07:55:08;146.98;;;64.53;;
36415;SDS011;22447;44.530;18.620;2023-03-14T07:57:39;148.50;;;64.18;;
36415;SDS011;22447;44.530;18.620;2023-03-14T08:00:06;157.00;;;64.10;;
36415;SDS011;22447;44.530;18.620;2023-03-14T08:02:38;178.63;;;63.15;;
36415;SDS011;22447;44.530;18.620;2023-03-14T08:05:04;131.70;;;56.13;;
36415;SDS011;22447;44.530;18.620;2023-03-14T08:07:30;129.50;;;52.20;;
36415;SDS011;22447;44.530;18.620;2023-03-14T08:09:56;140.38;;;49.25;;
36415;SDS011;22447;44.530;18.620;2023-03-14T08:12:22;147.93;;;47.97;;
36415;SDS011;22447;44.530;18.620;2023-03-14T08:14:48;160.38;;;49.75;;
36415;SDS011;22447;44.530;18.620;2023-03-14T08:17:14;100.28;;;42.20;;
36415;SDS011;22447;44.530;18.620;2023-03-14T08:19:43;138.63;;;57.83;;
36415;SDS011;22447;44.530;18.620;2023-03-14T08:22:09;131.10;;;54.30;;
36415;SDS011;22447;44.530;18.620;2023-03-14T08:24:35;105.65;;;49.22;;
36415;SDS011;22447;44.530;18.620;2023-03-14T08:27:01;139.85;;;47.42;;
36415;SDS011;22447;44.530;18.620;2023-03-14T08:29:27;99.03;;;38.90;;
36415;SDS011;22447;44.530;18.620;2023-03-14T08:31:53;46.47;;;23.17;;
36415;SDS011;22447;44.530;18.620;2023-03-14T08:34:20;32.58;;;13.38;;
36415;SDS011;22447;44.530;18.620;2023-03-14T08:36:46;38.03;;;11.82;;
36415;SDS011;22447;44.530;18.620;2023-03-14T08:39:12;53.58;;;14.00;;
36415;SDS011;22447;44.530;18.620;2023-03-14T08:41:38;58.40;;;12.50;;
36415;SDS011;22447;44.530;18.620;2023-03-14T08:44:09;44.20;;;16.30;;
36415;SDS011;22447;44.530;18.620;2023-03-14T08:46:36;17.98;;;9.48;;
36415;SDS011;22447;44.530;18.620;2023-03-14T08:49:03;14.23;;;4.88;;
36415;SDS011;22447;44.530;18.620;2023-03-14T08:51:29;35.78;;;6.97;;
36415;SDS011;22447;44.530;18.620;2023-03-14T08:53:56;68.93;;;10.18;;
36415;SDS011;22447;44.530;18.620;2023-03-14T08:56:22;22.13;;;4.97;;
36415;SDS011;22447;44.530;18.620;2023-03-14T08:58:48;18.55;;;5.05;;
36415;SDS011;22447;44.530;18.620;2023-03-14T09:01:14;22.65;;;4.28;;
36415;SDS011;22447;44.530;18.620;2023-03-14T09:03:40;12.50;;;4.80;;
36415;SDS011;22447;44.530;18.620;2023-03-14T09:06:07;20.92;;;4.88;;
36415;SDS011;22447;44.530;18.620;2023-03-14T09:08:34;13.10;;;4.80;;
36415;SDS011;22447;44.530;18.620;2023-03-14T09:11:00;43.60;;;7.03;;
36415;SDS011;22447;44.530;18.620;2023-03-14T09:13:26;18.25;;;4.03;;
36415;SDS011;22447;44.530;18.620;2023-03-14T09:15:53;81.80;;;10.48;;
36415;SDS011;22447;44.530;18.620;2023-03-14T09:18:23;22.05;;;3.70;;
36415;SDS011;22447;44.530;18.620;2023-03-14T09:20:55;8.13;;;2.53;;
36415;SDS011;22447;44.530;18.620;2023-03-14T09:23:21;6.13;;;3.42;;
36415;SDS011;22447;44.530;18.620;2023-03-14T09:25:47;10.68;;;3.13;;
36415;SDS011;22447;44.530;18.620;2023-03-14T09:28:14;4.88;;;2.90;;
36415;SDS011;22447;44.530;18.620;2023-03-14T09:30:40;7.60;;;3.50;;
36415;SDS011;22447;44.530;18.620;2023-03-14T09:33:06;5.57;;;2.53;;
36415;SDS011;22447;44.530;18.620;2023-03-14T09:35:35;10.77;;;3.10;;
36415;SDS011;22447;44.530;18.620;2023-03-14T09:38:01;16.15;;;4.63;;
36415;SDS011;22447;44.530;18.620;2023-03-14T09:40:30;20.45;;;5.30;;
36415;SDS011;22447;44.530;18.620;2023-03-14T09:42:59;18.58;;;5.20;;
36415;SDS011;22447;44.530;18.620;2023-03-14T09:47:54;9.00;;;4.15;;
36415;SDS011;22447;44.530;18.620;2023-03-14T09:50:22;12.85;;;5.00;;
36415;SDS011;22447;44.530;18.620;2023-03-14T09:52:51;15.23;;;6.20;;
36415;SDS011;22447;44.530;18.620;2023-03-14T09:55:21;14.57;;;5.50;;
36415;SDS011;22447;44.530;18.620;2023-03-14T09:57:48;12.15;;;4.72;;
36415;SDS011;22447;44.530;18.620;2023-03-14T10:00:20;9.23;;;4.22;;
36415;SDS011;22447;44.530;18.620;2023-03-14T10:03:34;13.60;;;5.53;;
36415;SDS011;22447;44.530;18.620;2023-03-14T10:05:38;8.88;;;4.22;;
36415;SDS011;22447;44.530;18.620;2023-03-14T10:08:05;11.25;;;4.55;;
36415;SDS011;22447;44.530;18.620;2023-03-14T10:10:31;6.30;;;3.38;;
36415;SDS011;22447;44.530;18.620;2023-03-14T10:12:59;6.82;;;3.15;;
36415;SDS011;22447;44.530;18.620;2023-03-14T10:15:34;5.13;;;3.58;;
36415;SDS011;22447;44.530;18.620;2023-03-14T10:18:02;5.90;;;3.38;;
36415;SDS011;22447;44.530;18.620;2023-03-14T10:20:33;6.63;;;3.10;;
36415;SDS011;22447;44.530;18.620;2023-03-14T10:25:43;6.07;;;2.75;;
36415;SDS011;22447;44.530;18.620;2023-03-14T10:28:26;5.05;;;3.25;;
36415;SDS011;22447;44.530;18.620;2023-03-14T10:30:57;9.32;;;3.35;;
36415;SDS011;22447;44.530;18.620;2023-03-14T10:33:24;6.18;;;2.63;;
36415;SDS011;22447;44.530;18.620;2023-03-14T10:36:02;6.93;;;2.67;;
36415;SDS011;22447;44.530;18.620;2023-03-14T10:38:29;10.80;;;3.30;;
36415;SDS011;22447;44.530;18.620;2023-03-14T10:40:57;3.28;;;2.00;;
36415;SDS011;22447;44.530;18.620;2023-03-14T10:43:25;3.38;;;1.70;;
36415;SDS011;22447;44.530;18.620;2023-03-14T10:45:58;8.68;;;2.92;;
36415;SDS011;22447;44.530;18.620;2023-03-14T10:48:32;17.23;;;3.28;;
36415;SDS011;22447;44.530;18.620;2023-03-14T10:56:12;7.15;;;1.50;;
36415;SDS011;22447;44.530;18.620;2023-03-14T10:58:46;3.10;;;1.20;;
36415;SDS011;22447;44.530;18.620;2023-03-14T11:03:57;4.55;;;1.38;;
36415;SDS011;22447;44.530;18.620;2023-03-14T11:06:29;8.93;;;2.22;;
36415;SDS011;22447;44.530;18.620;2023-03-14T11:11:39;19.10;;;3.80;;
36415;SDS011;22447;44.530;18.620;2023-03-14T11:19:32;9.98;;;3.80;;
36415;SDS011;22447;44.530;18.620;2023-03-14T11:32:49;19.52;;;3.35;;
36415;SDS011;22447;44.530;18.620;2023-03-14T11:36:07;25.83;;;4.32;;
36415;SDS011;22447;44.530;18.620;2023-03-14T11:40:39;9.13;;;3.72;;
36415;SDS011;22447;44.530;18.620;2023-03-14T11:43:13;16.92;;;5.00;;
36415;SDS011;22447;44.530;18.620;2023-03-14T11:45:45;5.80;;;1.48;;
36415;SDS011;22447;44.530;18.620;2023-03-14T11:48:24;6.20;;;1.23;;
36415;SDS011;22447;44.530;18.620;2023-03-14T11:50:53;3.88;;;1.48;;
36415;SDS011;22447;44.530;18.620;2023-03-14T11:53:25;6.53;;;1.80;;
36415;SDS011;22447;44.530;18.620;2023-03-14T11:56:11;9.15;;;2.83;;
36415;SDS011;22447;44.530;18.620;2023-03-14T11:58:55;2.47;;;1.40;;
36415;SDS011;22447;44.530;18.620;2023-03-14T12:01:27;66.55;;;7.50;;
36415;SDS011;22447;44.530;18.620;2023-03-14T12:04:13;5.72;;;1.70;;
36415;SDS011;22447;44.530;18.620;2023-03-14T12:06:48;21.15;;;3.72;;
36415;SDS011;22447;44.530;18.620;2023-03-14T12:09:16;2.03;;;1.65;;
36415;SDS011;22447;44.530;18.620;2023-03-14T12:11:52;9.23;;;2.00;;
36415;SDS011;22447;44.530;18.620;2023-03-14T12:14:27;2.22;;;0.80;;
36415;SDS011;22447;44.530;18.620;2023-03-14T12:19:38;8.77;;;1.90;;
36415;SDS011;22447;44.530;18.620;2023-03-14T12:22:23;6.53;;;1.60;;
36415;SDS011;22447;44.530;18.620;2023-03-14T12:25:15;3.22;;;1.00;;
36415;SDS011;22447;44.530;18.620;2023-03-14T12:28:02;4.70;;;1.40;;
36415;SDS011;22447;44.530;18.620;2023-03-14T12:30:37;6.32;;;1.20;;
36415;SDS011;22447;44.530;18.620;2023-03-14T12:35:52;2.15;;;1.10;;
36415;SDS011;22447;44.530;18.620;2023-03-14T12:41:28;2.95;;;1.20;;
36415;SDS011;22447;44.530;18.620;2023-03-14T12:49:47;1.02;;;0.70;;
36415;SDS011;22447;44.530;18.620;2023-03-14T12:55:12;7.82;;;1.98;;
36415;SDS011;22447;44.530;18.620;2023-03-14T13:00:42;7.38;;;1.42;;
36415;SDS011;22447;44.530;18.620;2023-03-14T13:03:18;4.20;;;0.98;;
36415;SDS011;22447;44.530;18.620;2023-03-14T13:05:57;16.27;;;2.03;;
36415;SDS011;22447;44.530;18.620;2023-03-14T13:08:37;6.60;;;1.48;;
36415;SDS011;22447;44.530;18.620;2023-03-14T13:11:10;10.75;;;1.80;;
36415;SDS011;22447;44.530;18.620;2023-03-14T13:13:47;5.00;;;1.10;;
36415;SDS011;22447;44.530;18.620;2023-03-14T13:16:24;10.93;;;1.75;;
36415;SDS011;22447;44.530;18.620;2023-03-14T13:18:58;3.25;;;1.50;;
36415;SDS011;22447;44.530;18.620;2023-03-14T13:21:27;6.38;;;1.58;;
36415;SDS011;22447;44.530;18.620;2023-03-14T13:24:06;6.57;;;1.60;;
36415;SDS011;22447;44.530;18.620;2023-03-14T13:26:45;18.38;;;2.65;;
36415;SDS011;22447;44.530;18.620;2023-03-14T13:29:30;9.05;;;1.63;;
36415;SDS011;22447;44.530;18.620;2023-03-14T13:32:01;12.80;;;2.38;;
36415;SDS011;22447;44.530;18.620;2023-03-14T13:34:38;27.67;;;2.92;;
36415;SDS011;22447;44.530;18.620;2023-03-14T13:37:13;7.43;;;2.17;;
36415;SDS011;22447;44.530;18.620;2023-03-14T13:39:48;5.13;;;1.85;;
36415;SDS011;22447;44.530;18.620;2023-03-14T13:42:24;24.80;;;3.00;;
36415;SDS011;22447;44.530;18.620;2023-03-14T13:44:55;14.40;;;2.72;;
36415;SDS011;22447;44.530;18.620;2023-03-14T13:47:23;8.82;;;2.08;;
36415;SDS011;22447;44.530;18.620;2023-03-14T13:49:51;8.60;;;2.72;;
36415;SDS011;22447;44.530;18.620;2023-03-14T13:52:24;2.35;;;1.10;;
36415;SDS011;22447;44.530;18.620;2023-03-14T13:54:58;14.88;;;3.15;;
36415;SDS011;22447;44.530;18.620;2023-03-14T13:57:25;16.85;;;2.70;;
36415;SDS011;22447;44.530;18.620;2023-03-14T13:59:58;17.05;;;2.58;;
36415;SDS011;22447;44.530;18.620;2023-03-14T14:02:26;12.25;;;3.38;;
36415;SDS011;22447;44.530;18.620;2023-03-14T14:04:53;6.57;;;1.63;;
36415;SDS011;22447;44.530;18.620;2023-03-14T14:07:19;5.65;;;1.30;;
36415;SDS011;22447;44.530;18.620;2023-03-14T14:09:49;7.18;;;1.98;;
36415;SDS011;22447;44.530;18.620;2023-03-14T14:12:27;31.17;;;3.70;;
36415;SDS011;22447;44.530;18.620;2023-03-14T14:15:06;17.08;;;3.13;;
36415;SDS011;22447;44.530;18.620;2023-03-14T14:17:43;5.07;;;2.15;;
36415;SDS011;22447;44.530;18.620;2023-03-14T14:23:02;18.80;;;3.53;;
36415;SDS011;22447;44.530;18.620;2023-03-14T14:25:29;14.43;;;2.95;;
36415;SDS011;22447;44.530;18.620;2023-03-14T14:27:56;16.05;;;2.40;;
36415;SDS011;22447;44.530;18.620;2023-03-14T14:30:28;9.80;;;1.77;;
36415;SDS011;22447;44.530;18.620;2023-03-14T14:33:18;8.63;;;2.05;;
36415;SDS011;22447;44.530;18.620;2023-03-14T14:35:53;10.52;;;2.42;;
36415;SDS011;22447;44.530;18.620;2023-03-14T14:38:24;6.13;;;1.60;;
36415;SDS011;22447;44.530;18.620;2023-03-14T14:40:55;16.52;;;3.25;;
36415;SDS011;22447;44.530;18.620;2023-03-14T14:43:28;13.43;;;3.63;;
36415;SDS011;22447;44.530;18.620;2023-03-14T14:45:58;12.23;;;2.30;;
36415;SDS011;22447;44.530;18.620;2023-03-14T14:48:25;3.60;;;0.95;;
36415;SDS011;22447;44.530;18.620;2023-03-14T14:59:18;17.50;;;2.97;;
36415;SDS011;22447;44.530;18.620;2023-03-14T15:01:50;16.50;;;2.40;;
36415;SDS011;22447;44.530;18.620;2023-03-14T15:04:21;12.07;;;3.00;;
36415;SDS011;22447;44.530;18.620;2023-03-14T15:06:48;15.98;;;3.58;;
36415;SDS011;22447;44.530;18.620;2023-03-14T15:09:15;10.55;;;2.88;;
36415;SDS011;22447;44.530;18.620;2023-03-14T15:11:43;14.57;;;3.17;;
36415;SDS011;22447;44.530;18.620;2023-03-14T15:14:09;6.97;;;2.10;;
36415;SDS011;22447;44.530;18.620;2023-03-14T15:16:35;11.32;;;2.60;;
36415;SDS011;22447;44.530;18.620;2023-03-14T15:19:02;8.90;;;2.80;;
36415;SDS011;22447;44.530;18.620;2023-03-14T15:21:34;7.97;;;2.88;;
36415;SDS011;22447;44.530;18.620;2023-03-14T15:24:00;13.75;;;3.17;;
36415;SDS011;22447;44.530;18.620;2023-03-14T15:26:27;23.50;;;4.35;;
36415;SDS011;22447;44.530;18.620;2023-03-14T15:28:54;11.95;;;3.00;;
36415;SDS011;22447;44.530;18.620;2023-03-14T15:31:20;13.55;;;2.53;;
36415;SDS011;22447;44.530;18.620;2023-03-14T15:33:49;9.95;;;2.35;;
36415;SDS011;22447;44.530;18.620;2023-03-14T15:38:52;7.20;;;2.40;;
36415;SDS011;22447;44.530;18.620;2023-03-14T15:41:20;4.28;;;2.33;;
36415;SDS011;22447;44.530;18.620;2023-03-14T15:43:47;7.75;;;2.40;;
36415;SDS011;22447;44.530;18.620;2023-03-14T15:46:13;3.83;;;1.90;;
36415;SDS011;22447;44.530;18.620;2023-03-14T15:48:40;6.40;;;2.33;;
36415;SDS011;22447;44.530;18.620;2023-03-14T15:51:06;4.75;;;2.42;;
36415;SDS011;22447;44.530;18.620;2023-03-14T15:53:32;3.17;;;1.30;;
36415;SDS011;22447;44.530;18.620;2023-03-14T15:55:58;3.17;;;1.60;;